Aérodrome :
LOGIN :

S'inscrire | Disclaimer

   EN    FR    IT 

 










Légende :    VFR   VFR Marginal   IFR   IFR Intensif   IFR Très Intensif
Visi : 
Plafond : 
>= 8 km
>= 3000ft
5 à 8 km
1000 à 3000 ft
1500m à 5 km
500 à 1000 ft
800 à 1500m
200 à 500 ft
< 800m
< 200 ft
Symboles :   Orages  Brouillard  Fortes neiges  Fortes précipitations  Vent > 20 kt
SIGMETs :   Divers  Orages  Givrage  Turbulence  Onde Orograph.  Cendres Volcan.







- Altitude de l'aérodrome : 297 ft
- Code IATA : UIP
- Voir les cartes d'approche


LFRQ - Quimper Pluguffan

DERNIER METAR :
  • 221800Z AUTO 26004KT CAVOK 08/07 Q1023 TEMPO BKN013

METARs EXPIRÉS :
  • 221730Z AUTO 25004KT CAVOK 09/07 Q1023 TEMPO BKN013
  • 221700Z AUTO 28005KT CAVOK 09/07 Q1023 NOSIG
  • 221630Z AUTO 29005KT CAVOK 10/07 Q1023 NOSIG
  • 221600Z AUTO 30009KT 9999 FEW016 11/08 Q1023 NOSIG
  • 221530Z AUTO 30010KT 9999 BKN017 BKN022 OVC027 11/08 Q1022 BECMG 24006KT

TAF TAF LFRQ
Valide du 22 à 18h jusqu'au 23 à 03h UTC


221700Z 2218/2303 25008KT 9999 SCT016
TEMPO 2219/2222 BKN013
BECMG 2222/2224 19010KT -RA BKN010 OVC050
BECMG 2300/2303 2000 RADZ OVC003
Pas de NOTAMs connus pour ce terrain.



MET'MAP, la Météo Aéronautique d'un coup d'oeil ! - Copyright ORBIFLY Décembre 2007 - Disclaimer

ORBIFLY MET'MAP TEAM :

Programmation & Développement : Alexandra Zaïnal
Conception & Développement : Baudouin d'Aumeries
Co-Programmation & Développement : Marc-Olivier Méhu
Soutien technique & logistique : Manuel Goepfert

Contact : metmap@orbifly.com




SOURCES & CREDITS :

   NOAA